Malaga, California
Current Conditions -  °F | °C
As of 4:53 AM on Saturday 25 Oct 2014 (Local Time) from KFAT Reporting Station
Scattered Clouds Scattered Clouds  
Wind Chill: 59°   Ceiling: Unl
Heat Index: 59°   Visibility: 9mi
Dew Point: 45°   Wind: 0mph
Humidity: 60%   Direction: NA
Pressure: 29.97"   Gusts: NA
Location:  36.6353°N, 119.735°W
Report Text: KFAT 251153Z 00000KT 9SM SCT250 15/07 A2997 RMK AO2 SLP144 T01500072 10200 20150 52005
Loading
Personal Weather Stations






























Interactive Weather Map
Tropical Storm Tracking
New forecast layout! Learn more

10-Day Weather Forecast

Advertisements
Track Severe Weather on mobile